Latest Weather Observations for Cape Byron

IDN60801

Issued at 10:02 pm EST Saturday 30 May 2015 (issued every 30 minutes, with the page automatically refreshed every 10 minutes)

About weather observations | Map of weather stations | Latest weather observations for NSW | Other Formats
Station Details ID: 058216 Name: CAPE BYRON AWS Lat: -28.64 Lon: 153.64 Height: 95.0 m
Data from the previous 72 hours. | See also: Recent months at Cape Byron
Date/Time
EST
Temp
°C
App
Temp
°C
Dew
Point
Rel
Hum
%
Delta-T
°C
Wind Press
QNH
hPa
Press
MSL
hPa
Rain
since 9 am
mm
Dir
 
Spd
km/h
Gust
km/h
Spd
kts
Gust
kts
30/10:00pm 19.7 21.0 17.5 87 1.3 NNW 7 13 4 7 1019.6 1019.4 0.0
30/09:30pm 19.9 20.4 17.5 86 1.5 NNW 11 15 6 8 1019.6 1019.4 0.0
30/09:00pm 19.9 20.5 17.7 87 1.4 NNW 11 15 6 8 1019.7 1019.5 0.0
30/08:30pm 20.1 20.8 18.0 88 1.3 NNW 11 17 6 9 1019.6 1019.4 0.0
30/08:00pm 20.4 21.3 18.3 88 1.3 NNW 11 15 6 8 1019.5 1019.3 0.0
30/07:30pm 20.7 20.9 18.5 87 1.4 N 15 19 8 10 1019.5 1019.3 0.0
30/07:00pm 20.7 20.9 18.5 87 1.4 N 15 19 8 10 1019.6 1019.4 0.0
30/06:30pm 20.9 21.8 18.3 85 1.6 NNE 11 13 6 7 1019.5 1019.3 0.0
30/06:00pm 20.8 22.3 18.0 84 1.7 NE 7 9 4 5 1019.5 1019.3 0.0
30/05:30pm 20.8 22.4 17.8 83 1.9 NE 6 7 3 4 1019.3 1019.1 0.0
30/05:00pm 21.1 22.5 17.9 82 2.0 NE 7 9 4 5 1019.3 1019.1 0.0
30/04:30pm 21.5 23.2 18.1 81 2.1 ENE 6 7 3 4 1019.2 1019.0 0.0
30/04:00pm 21.8 23.4 18.2 80 2.2 NE 7 9 4 5 1019.0 1018.8 0.0
30/03:30pm 21.8 22.7 18.4 81 2.1 E 11 11 6 6 1018.8 1018.6 0.0
30/03:00pm 22.0 22.5 18.4 80 2.3 ESE 13 13 7 7 1018.8 1018.6 0.0
30/02:30pm 22.1 22.9 18.1 78 2.5 ESE 11 13 6 7 1019.0 1018.8 0.0
30/02:00pm 22.2 23.4 18.2 78 2.5 ESE 9 13 5 7 1019.3 1019.1 0.0
30/01:30pm 22.8 24.3 18.8 78 2.5 E 9 11 5 6 1019.5 1019.3 0.0
30/01:00pm 22.4 23.9 18.8 80 2.3 ESE 9 11 5 6 1019.7 1019.5 0.0
30/12:30pm 21.8 22.7 17.6 77 2.6 S 9 11 5 6 1020.2 1020.0 0.0
30/12:00pm 22.0 23.0 17.8 77 2.6 SE 9 13 5 7 1020.3 1020.1 0.0
30/11:30am 21.8 21.6 16.7 73 3.1 S 13 15 7 8 1021.1 1020.9 0.0
30/11:00am 22.0 22.6 16.7 72 3.2 SSW 9 11 5 6 1021.6 1021.4 0.0
30/10:30am 21.4 21.2 16.6 74 2.9 SSW 13 19 7 10 1022.1 1021.9 0.0
30/10:00am 20.6 19.5 16.4 77 2.5 SW 17 20 9 11 1022.8 1022.6 0.0
30/09:30am 19.8 18.0 16.1 79 2.2 WSW 20 26 11 14 1023.0 1022.8 0.0
30/09:00am 19.3 17.6 16.2 82 1.9 WSW 20 26 11 14 1022.9 1022.7 0.0
30/08:30am 18.6 16.9 15.8 84 1.7 WSW 19 20 10 11 1022.7 1022.5 0.0
30/08:00am 18.1 16.4 15.7 86 1.4 WSW 19 22 10 12 1022.7 1022.5 0.0
30/07:30am 17.8 16.3 15.4 86 1.4 SW 17 20 9 11 1022.5 1022.3 0.0
30/07:00am 17.8 16.2 15.1 84 1.6 WSW 17 20 9 11 1022.4 1022.2 0.0
30/06:30am 17.8 16.5 14.9 83 1.7 WSW 15 20 8 11 1022.3 1022.1 0.0
30/06:00am 17.8 16.5 14.7 82 1.8 SW 15 17 8 9 1021.7 1021.5 0.0
30/05:30am 18.1 17.1 14.6 80 2.0 SW 13 15 7 8 1021.6 1021.4 0.0
30/05:00am 18.5 17.6 14.8 79 2.2 W 13 17 7 9 1021.1 1020.9 0.0
30/04:30am 18.6 18.3 14.5 77 2.4 W 9 13 5 7 1020.9 1020.7 0.0
30/04:00am 18.8 18.5 14.5 76 2.5 SW 9 11 5 6 1021.2 1021.0 0.0
30/03:30am 18.7 17.4 14.8 78 2.3 SW 15 17 8 9 1021.3 1021.1 0.0
30/03:00am 18.7 17.4 14.8 78 2.3 SW 15 19 8 10 1021.3 1021.1 0.0
30/02:30am 18.6 17.0 14.9 79 2.2 SSW 17 19 9 10 1021.3 1021.1 0.0
30/02:00am 18.8 18.0 15.1 79 2.2 SSW 13 15 7 8 1021.6 1021.4 0.0
30/01:30am 19.1 18.3 15.0 77 2.4 SSW 13 15 7 8 1021.8 1021.6 0.0
30/01:00am 18.7 18.3 15.2 80 2.1 SW 11 13 6 7 1022.1 1021.9 0.0
30/12:30am 18.7 18.2 15.9 84 1.7 NW 13 15 7 8 1021.7 1021.5 0.0
30/12:00am 18.7 17.8 15.9 84 1.7 NNW 15 17 8 9 1022.0 1021.8 0.0
 
Date/Time
EST
Temp
°C
App
Temp
°C
Dew
Point
Rel
Hum
%
Delta-T
°C
Wind Press
QNH
hPa
Press
MSL
hPa
Rain
since 9 am
mm
Dir
 
Spd
km/h
Gust
km/h
Spd
kts
Gust
kts
29/11:30pm 18.6 18.9 16.0 85 1.6 NW 9 13 5 7 1022.5 1022.3 0.0
29/11:00pm 19.0 19.1 16.4 85 1.6 NNW 11 15 6 8 1022.6 1022.4 0.0
29/10:30pm 19.1 19.6 16.5 85 1.6 NNW 9 11 5 6 1022.6 1022.4 0.0
29/10:00pm 19.1 19.6 16.5 85 1.6 NW 9 15 5 8 1022.8 1022.6 0.0
29/09:30pm 19.5 20.1 16.9 85 1.6 NNW 9 13 5 7 1022.7 1022.5 0.0
29/09:00pm 19.8 20.5 17.0 84 1.7 NNW 9 13 5 7 1022.6 1022.4 0.0
29/08:30pm 20.3 21.0 17.1 82 2.0 NNW 9 13 5 7 1022.7 1022.5 0.0
29/08:00pm 20.3 20.7 17.3 83 1.8 NNW 11 15 6 8 1022.6 1022.4 0.0
29/07:30pm 20.6 21.1 17.4 82 2.0 NNW 11 15 6 8 1022.7 1022.5 0.0
29/07:00pm 20.7 21.8 17.1 80 2.2 NW 7 11 4 6 1022.7 1022.5 0.0
29/06:30pm 21.2 21.6 18.2 83 1.9 N 13 17 7 9 1022.2 1022.0 0.0
29/06:00pm 21.5 21.2 18.3 82 2.0 N 17 20 9 11 1022.3 1022.1 0.0
29/05:30pm 21.6 21.8 17.6 78 2.5 N 13 20 7 11 1022.1 1021.9 0.0
29/05:00pm 21.7 21.2 17.9 79 2.4 NNE 17 24 9 13 1021.8 1021.6 0.0
29/04:30pm 21.7 21.5 17.5 77 2.6 N 15 19 8 10 1022.0 1021.8 0.0
29/04:00pm 22.3 22.7 17.2 73 3.1 NNE 11 17 6 9 1021.9 1021.7 0.0
29/03:30pm 23.5 23.9 16.3 64 4.4 NNE 9 15 5 8 1021.6 1021.4 0.0
29/03:00pm 23.7 23.8 15.5 60 4.9 NNE 9 15 5 8 1021.3 1021.1 0.0
29/02:30pm 23.7 23.4 14.4 56 5.5 N 9 13 5 7 1021.2 1021.0 0.0
29/02:00pm 24.2 24.3 15.4 58 5.3 NNW 9 15 5 8 1021.6 1021.4 0.0
29/01:30pm 23.9 24.6 16.2 62 4.7 N 7 13 4 7 1021.5 1021.3 0.0
29/01:00pm 24.0 24.2 15.8 60 5.0 N 9 15 5 8 1021.4 1021.2 0.0
29/12:30pm 23.0 22.7 14.3 58 5.1 N 9 15 5 8 1021.8 1021.6 0.0
29/12:00pm 22.9 21.9 14.5 59 5.0 N 13 19 7 10 1022.0 1021.8 0.0
29/11:30am 23.1 22.1 14.7 59 5.0 N 13 19 7 10 1022.4 1022.2 0.0
29/11:00am 22.8 22.9 15.6 64 4.3 N 9 15 5 8 1023.1 1022.9 0.0
29/10:30am 22.0 21.6 15.1 65 4.1 N 11 17 6 9 1023.2 1023.0 0.0
29/10:00am 21.2 20.6 14.6 66 3.9 NNW 11 15 6 8 1023.3 1023.1 0.0
29/09:30am 19.6 19.5 15.9 79 2.2 NNW 11 19 6 10 1023.6 1023.4 0.0
29/09:00am 18.6 19.1 15.5 82 1.8 N 7 11 4 6 1024.1 1023.9 0.0
29/08:30am 17.9 17.5 14.2 79 2.1 NNW 9 11 5 6 1024.1 1023.9 0.0
29/08:00am 18.1 18.2 14.4 79 2.1 N 7 11 4 6 1023.6 1023.4 0.0
29/07:30am 18.4 18.1 14.5 78 2.3 NNW 9 11 5 6 1023.2 1023.0 0.0
29/07:00am 18.2 17.3 14.9 81 1.9 N 13 17 7 9 1022.9 1022.7 0.0
29/06:30am 17.5 16.8 14.4 82 1.8 NNW 11 15 6 8 1023.1 1022.9 0.0
29/06:00am 17.9 18.5 15.2 84 1.6 NE 6 13 3 7 1023.0 1022.8 0.0
29/05:30am 17.8 17.7 14.9 83 1.7 NNW 9 15 5 8 1022.8 1022.6 0.0
29/05:00am 17.3 17.6 14.9 86 1.4 NNW 7 13 4 7 1022.8 1022.6 0.0
29/04:30am 17.5 18.2 15.5 88 1.2 NNE 6 7 3 4 1022.8 1022.6 0.0
29/04:00am 17.5 17.7 15.7 89 1.1 NNW 9 15 5 8 1022.6 1022.4 0.0
29/03:30am 17.3 17.4 15.6 90 1.0 NNW 9 15 5 8 1022.7 1022.5 0.0
29/03:00am 16.9 17.3 15.2 90 1.0 NNW 7 11 4 6 1022.7 1022.5 0.0
29/02:30am 17.1 17.5 15.4 90 1.0 NNW 7 13 4 7 1022.8 1022.6 0.0
29/02:00am 16.8 16.7 15.0 89 1.0 NW 9 13 5 7 1023.1 1022.9 0.0
29/01:30am 17.2 17.8 15.4 89 1.1 NW 6 11 3 6 1023.3 1023.1 0.0
29/01:00am 18.1 18.8 16.1 88 1.2 NNW 7 11 4 6 1023.6 1023.4 0.0
29/12:30am 18.4 18.1 16.4 88 1.2 N 13 17 7 9 1023.4 1023.2 0.0
29/12:00am 18.2 17.5 16.5 90 1.0 N 15 19 8 10 1023.7 1023.5 0.0
 
Date/Time
EST
Temp
°C
App
Temp
°C
Dew
Point
Rel
Hum
%
Delta-T
°C
Wind Press
QNH
hPa
Press
MSL
hPa
Rain
since 9 am
mm
Dir
 
Spd
km/h
Gust
km/h
Spd
kts
Gust
kts
28/11:30pm 17.6 17.5 15.9 90 1.0 NNW 11 15 6 8 1023.8 1023.6 0.0
28/11:00pm 17.4 17.6 15.7 90 1.0 NNW 9 15 5 8 1023.9 1023.7 0.0
28/10:30pm 16.9 17.5 15.2 90 1.0 NW 6 11 3 6 1024.3 1024.1 0.0
28/10:00pm 17.0 17.4 15.2 89 1.0 NNW 7 11 4 6 1024.4 1024.2 0.0
28/09:30pm 17.0 16.8 14.8 87 1.3 NW 9 13 5 7 1024.2 1024.0 0.0
28/09:00pm 17.5 17.8 15.0 85 1.5 WNW 7 13 4 7 1024.5 1024.3 0.0
28/08:30pm 18.9 19.0 15.4 80 2.1 NW 9 19 5 10 1024.2 1024.0 0.0
28/08:00pm 19.5 18.5 15.6 78 2.3 NNE 15 19 8 10 1024.0 1023.8 0.0
28/07:30pm 19.5 18.6 15.8 79 2.2 N 15 22 8 12 1023.9 1023.7 0.0
28/07:00pm 19.6 19.0 15.7 78 2.3 NNE 13 19 7 10 1023.8 1023.6 0.0
28/06:30pm 19.5 19.0 15.8 79 2.2 NE 13 19 7 10 1023.7 1023.5 0.0
28/06:00pm 19.4 17.7 15.7 79 2.2 NE 19 24 10 13 1023.2 1023.0 0.0
28/05:30pm 19.4 18.1 15.9 80 2.1 NE 17 20 9 11 1023.2 1023.0 0.0
28/05:00pm 19.5 17.8 15.8 79 2.2 NE 19 20 10 11 1022.7 1022.5 0.0
28/04:30pm 19.8 17.9 15.2 75 2.7 NE 19 22 10 12 1022.5 1022.3 0.0
28/04:00pm 20.4 18.3 14.7 70 3.3 NE 19 22 10 12 1022.5 1022.3 0.0
28/03:30pm 21.5 19.9 15.1 67 3.8 NE 17 19 9 10 1022.5 1022.3 0.0
28/03:00pm 22.2 22.2 16.2 69 3.6 ENE 11 15 6 8 1022.3 1022.1 0.0
28/02:30pm 22.2 22.1 16.0 68 3.8 ENE 11 17 6 9 1022.3 1022.1 0.0
28/02:00pm 22.6 21.8 16.2 67 3.9 ENE 15 20 8 11 1022.3 1022.1 0.0
28/01:30pm 22.4 22.1 16.4 69 3.7 ENE 13 17 7 9 1022.3 1022.1 0.0
28/01:00pm 21.9 21.8 16.0 69 3.6 E 11 15 6 8 1022.8 1022.6 0.0
28/12:30pm 22.3 21.7 15.6 66 4.0 E 13 15 7 8 1023.5 1023.3 0.0
28/12:00pm 22.4 22.2 15.7 66 4.0 E 11 13 6 7 1024.1 1023.9 0.0
28/11:30am 20.5 21.0 15.1 71 3.2 SW 6 7 3 4 1024.7 1024.5 0.0
28/11:00am 19.9 19.9 15.1 74 2.8 SSW 9 11 5 6 1024.8 1024.6 0.0
28/10:30am 19.7 19.6 14.9 74 2.8 SW 9 13 5 7 1025.1 1024.9 0.0
28/10:00am 18.6 18.2 15.1 80 2.0 WSW 11 15 6 8 1025.2 1025.0 0.0
28/09:30am 18.1 17.5 14.6 80 2.0 W 11 13 6 7 1025.2 1025.0 0.0
28/09:00am 17.3 17.0 14.4 83 1.7 WSW 9 13 5 7 1025.0 1024.8 0.0
28/08:30am 17.1 16.4 14.2 83 1.7 WNW 11 15 6 8 1025.0 1024.8 0.0
28/08:00am 17.5 17.4 14.0 80 2.0 NW 7 7 4 4 1024.7 1024.5 0.0
28/07:30am 16.1 14.3 13.4 84 1.5 WSW 15 19 8 10 1024.3 1024.1 0.0
28/07:00am 15.8 14.2 12.7 82 1.7 SW 13 17 7 9 1024.1 1023.9 0.0
28/06:30am 15.2 13.7 13.1 87 1.2 SW 13 15 7 8 1023.8 1023.6 0.0
28/06:00am 15.2 13.6 12.9 86 1.3 SW 13 17 7 9 1023.5 1023.3 0.0
28/05:30am 15.7 13.3 12.6 82 1.7 WSW 17 20 9 11 1023.2 1023.0 0.0
28/05:00am 15.3 13.0 13.0 86 1.3 WSW 17 20 9 11 1023.3 1023.1 0.0
28/04:30am 15.9 14.8 13.0 83 1.6 SW 11 15 6 8 1023.3 1023.1 0.0
28/04:00am 17.2 15.5 13.7 80 2.0 W 15 19 8 10 1023.2 1023.0 0.0
28/03:30am 17.1 15.8 13.8 81 1.9 W 13 17 7 9 1023.2 1023.0 0.0
28/03:00am 16.7 15.4 13.6 82 1.7 WNW 13 15 7 8 1022.8 1022.6 0.0
28/02:30am 16.8 15.1 13.7 82 1.8 WNW 15 17 8 9 1023.0 1022.8 0.0
28/02:00am 17.1 15.5 14.0 82 1.8 WNW 15 17 8 9 1023.1 1022.9 0.0
28/01:30am 17.0 15.5 14.1 83 1.7 WNW 15 17 8 9 1023.2 1023.0 0.0
28/01:00am 17.2 15.7 14.1 82 1.8 WNW 15 17 8 9 1023.5 1023.3 0.0
28/12:30am 17.1 15.2 14.2 83 1.7 WNW 17 20 9 11 1023.8 1023.6 0.0
28/12:00am 17.1 15.6 14.2 83 1.7 WNW 15 19 8 10 1023.8 1023.6 0.0
 
Date/Time
EST
Temp
°C
App
Temp
°C
Dew
Point
Rel
Hum
%
Delta-T
°C
Wind Press
QNH
hPa
Press
MSL
hPa
Rain
since 9 am
mm
Dir
 
Spd
km/h
Gust
km/h
Spd
kts
Gust
kts
27/11:30pm 16.9 15.8 14.4 85 1.4 WNW 13 19 7 10 1023.8 1023.6 0.0
27/11:00pm 16.7 15.6 14.2 85 1.4 WNW 13 17 7 9 1023.8 1023.6 0.0
27/10:30pm 16.8 16.0 14.1 84 1.5 NW 11 13 6 7 1023.6 1023.4 0.0

Other Formats:

Comma delimited format used in spreadsheet applications
http://www.bom.gov.au/fwo/IDN60801/IDN60801.94599.axf

JavaScript Object Notation format (JSON) in row-major order
http://www.bom.gov.au/fwo/IDN60801/IDN60801.94599.json